Time;durP1;ratioP1;P1;durP2;ratioP2;P2;SDS_P1;SDS_P2;PMS_P1;PMS_P2;Temp;Humidity;BMP_temperature;BMP_pressure;BME280_temperature;BME280_humidity;BME280_pressure;Samples;Min_cycle;Max_cycle;Signal;HPM_P1;HPM_P2
2023/03/24 00:02:23;;;;;;;;;3.50;3.00;;;;;15.34;58.89;99749.88;5051541;28;45386;-62
2023/03/24 00:04:51;;;;;;;;;7.25;5.25;;;;;15.31;59.00;99742.94;5019299;28;45270;-62
2023/03/24 00:07:18;;;;;;;;;8.25;5.75;;;;;15.36;58.73;99761.25;5017947;28;46028;-62
2023/03/24 00:09:44;;;;;;;;;5.25;4.25;;;;;15.37;59.15;99766.47;5051167;28;45180;-63
2023/03/24 00:12:12;;;;;;;;;4.00;4.00;;;;;15.41;59.15;99783.91;5019374;28;45291;-62
2023/03/24 00:14:39;;;;;;;;;5.00;5.00;;;;;15.42;59.39;99774.16;5019132;28;45508;-62
2023/03/24 00:17:08;;;;;;;;;4.75;4.75;;;;;15.44;59.35;99769.66;5019207;28;46124;-62
2023/03/24 00:19:37;;;;;;;;;5.75;5.50;;;;;15.47;58.92;99764.22;5032433;28;46096;-62
2023/03/24 00:22:07;;;;;;;;;5.00;5.00;;;;;15.47;59.02;99777.47;5003624;28;45296;-62
2023/03/24 00:24:33;;;;;;;;;6.00;4.25;;;;;15.49;59.30;99782.69;5015461;28;45875;-62
2023/03/24 00:26:59;;;;;;;;;4.25;4.25;;;;;15.50;59.09;99781.75;5019026;28;45339;-62
2023/03/24 00:29:25;;;;;;;;;6.00;5.25;;;;;15.50;58.89;99784.41;5018914;28;45176;-62
2023/03/24 00:31:52;;;;;;;;;5.00;5.00;;;;;15.53;58.90;99785.06;5019103;28;45279;-62
2023/03/24 00:34:21;;;;;;;;;2.75;2.75;;;;;15.54;58.99;99785.94;5019204;28;45403;-62
2023/03/24 00:36:48;;;;;;;;;4.50;4.50;;;;;15.56;58.99;99784.94;5017493;28;45971;-62
2023/03/24 00:39:16;;;;;;;;;5.50;5.25;;;;;15.60;59.16;99791.78;5018819;28;45213;-62
2023/03/24 00:41:44;;;;;;;;;6.00;5.00;;;;;15.56;59.11;99771.69;5001071;27;45306;-62
2023/03/24 00:44:16;;;;;;;;;5.50;5.50;;;;;15.58;59.08;99785.72;5015949;28;45379;-62
2023/03/24 00:47:03;;;;;;;;;4.75;4.75;;;;;15.59;59.51;99776.81;5018735;28;47196;-62
2023/03/24 00:49:43;;;;;;;;;4.50;4.50;;;;;15.62;58.98;99793.50;5018532;28;45515;-62
2023/03/24 00:52:11;;;;;;;;;5.00;4.00;;;;;15.64;59.31;99800.44;5018560;28;45498;-62
2023/03/24 00:54:38;;;;;;;;;4.75;4.25;;;;;15.64;59.24;99812.84;5018666;28;45185;-62
2023/03/24 00:57:06;;;;;;;;;4.75;3.75;;;;;15.66;59.47;99817.13;5018572;28;46361;-62
2023/03/24 00:59:31;;;;;;;;;4.50;4.50;;;;;15.66;59.29;99818.88;5018718;28;45468;-62
2023/03/24 01:01:56;;;;;;;;;5.75;5.50;;;;;15.65;59.27;99823.34;5017418;28;45548;-62
2023/03/24 01:04:25;;;;;;;;;5.25;5.00;;;;;15.66;59.33;99816.25;5017593;28;45593;-62
2023/03/24 01:06:53;;;;;;;;;7.00;5.00;;;;;15.63;59.50;99830.50;5018249;28;46405;-62
2023/03/24 01:09:20;;;;;;;;;2.00;2.00;;;;;15.65;59.15;99827.78;5018621;28;45319;-62
2023/03/24 01:11:46;;;;;;;;;5.00;4.25;;;;;15.64;59.54;99818.97;5018505;28;45449;-62
2023/03/24 01:14:12;;;;;;;;;3.75;3.75;;;;;15.64;59.48;99836.66;5018713;28;45303;-62
2023/03/24 01:16:38;;;;;;;;;5.50;4.25;;;;;15.65;59.57;99801.31;5018345;28;46974;-62
2023/03/24 01:19:05;;;;;;;;;4.25;4.25;;;;;15.65;59.50;99811.91;5018584;28;45173;-62
2023/03/24 01:21:33;;;;;;;;;5.50;5.50;;;;;15.64;59.78;99821.63;5012511;28;45464;-62
2023/03/24 01:24:00;;;;;;;;;5.25;5.25;;;;;15.59;59.92;99821.84;5010483;28;45257;-62
2023/03/24 01:26:26;;;;;;;;;6.25;5.75;;;;;15.61;59.40;99819.13;5018057;28;46179;-62
2023/03/24 01:28:52;;;;;;;;;4.50;3.75;;;;;15.58;59.77;99827.22;5018265;28;45287;-62
2023/03/24 01:31:17;;;;;;;;;5.00;5.00;;;;;15.59;59.23;99805.94;5018485;28;45327;-62
2023/03/24 01:33:43;;;;;;;;;5.75;3.75;;;;;15.55;59.62;99792.97;5018612;28;45269;-63
2023/03/24 01:36:08;;;;;;;;;4.00;4.00;;;;;15.56;59.56;99802.63;5017952;28;45364;-62
2023/03/24 01:38:35;;;;;;;;;5.75;4.00;;;;;15.53;59.79;99808.06;5018267;28;45153;-62
2023/03/24 01:41:01;;;;;;;;;5.75;4.00;;;;;15.58;59.60;99820.16;5005959;28;45362;-62
2023/03/24 01:43:30;;;;;;;;;6.00;5.25;;;;;15.55;59.63;99804.41;5010432;28;45237;-62
2023/03/24 01:46:19;;;;;;;;;5.75;5.50;;;;;15.54;59.73;99805.31;5018185;28;47205;-62
2023/03/24 01:49:00;;;;;;;;;4.00;4.00;;;;;15.56;59.80;99821.16;5018069;28;45186;-62
2023/03/24 01:51:33;;;;;;;;;3.00;3.00;;;;;15.56;59.64;99827.31;4975903;28;45858;-62
2023/03/24 01:54:03;;;;;;;;;1.75;0.75;;;;;15.55;59.63;99833.53;4993062;28;46901;-62
2023/03/24 01:56:33;;;;;;;;;3.75;3.75;;;;;15.56;59.98;99831.75;4991527;28;45912;-62
2023/03/24 01:59:02;;;;;;;;;4.75;4.75;;;;;15.56;59.82;99837.03;4991754;28;46459;-62
2023/03/24 02:01:29;;;;;;;;;5.50;5.50;;;;;15.55;59.55;99840.63;4991608;28;45417;-62
2023/03/24 02:03:57;;;;;;;;;3.50;3.50;;;;;15.53;59.86;99830.09;4990209;28;45631;-62
2023/03/24 02:06:26;;;;;;;;;6.00;4.00;;;;;15.51;59.51;99836.38;4991139;28;46175;-62
2023/03/24 02:08:55;;;;;;;;;3.50;3.25;;;;;15.48;59.45;99824.16;4991220;28;45909;-62
2023/03/24 02:11:22;;;;;;;;;5.50;4.50;;;;;15.46;59.73;99820.75;4990803;28;45829;-62
2023/03/24 02:13:47;;;;;;;;;5.75;4.50;;;;;15.49;60.00;99823.22;4991736;28;45297;-62
2023/03/24 02:16:31;;;;;;;;;4.00;3.00;;;;;15.48;59.78;99813.56;4992215;28;46034;-62
2023/03/24 02:19:37;;;;;;;;;3.75;2.25;;;;;15.43;59.66;99805.00;4993503;28;45544;-62
2023/03/24 02:22:05;;;;;;;;;5.50;5.50;;;;;15.44;59.57;99797.00;4991354;28;45586;-62
2023/03/24 02:24:58;;;;;;;;;5.00;4.75;;;;;15.43;59.59;99805.88;5012552;28;45400;-62
2023/03/24 02:27:42;;;;;;;;;4.50;4.00;;;;;15.43;59.64;99831.47;5016871;28;45519;-62
2023/03/24 02:30:25;;;;;;;;;4.50;4.50;;;;;15.43;59.54;99818.25;5016438;28;45543;-62
2023/03/24 02:33:05;;;;;;;;;3.75;3.75;;;;;15.41;60.11;99826.25;5017536;28;45301;-62
2023/03/24 02:35:53;;;;;;;;;5.50;3.25;;;;;15.40;59.72;99834.28;5017516;28;45416;-62
2023/03/24 02:38:33;;;;;;;;;3.00;3.00;;;;;15.39;59.62;99840.50;5017146;28;47237;-62
2023/03/24 02:41:07;;;;;;;;;4.00;3.50;;;;;15.38;59.33;99836.13;5005284;28;45420;-62
2023/03/24 02:43:35;;;;;;;;;5.25;5.25;;;;;15.36;59.83;99851.25;5010336;28;45295;-62
2023/03/24 02:46:26;;;;;;;;;1.00;1.00;;;;;15.34;60.04;99846.00;5017472;28;45307;-62
2023/03/24 02:49:10;;;;;;;;;4.25;2.75;;;;;15.35;59.62;99873.34;5017111;28;45315;-62
2023/03/24 02:52:15;;;;;;;;;3.00;3.00;;;;;15.31;60.14;99835.59;5017011;28;45328;-62
2023/03/24 02:54:50;;;;;;;;;3.25;3.25;;;;;15.29;59.83;99834.78;5017389;28;45439;-62
2023/03/24 02:57:28;;;;;;;;;4.50;4.25;;;;;15.28;60.03;99841.88;5017154;28;45659;-62
2023/03/24 03:00:08;;;;;;;;;4.50;4.00;;;;;15.26;59.79;99849.03;5017158;28;45422;-62
2023/03/24 03:02:40;;;;;;;;;3.75;2.75;;;;;15.26;60.16;99832.31;5017184;28;45239;-62
2023/03/24 03:05:13;;;;;;;;;4.25;4.00;;;;;15.24;59.81;99828.88;5015962;28;45460;-62
2023/03/24 03:07:41;;;;;;;;;2.75;2.75;;;;;15.22;59.96;99831.59;5015702;28;45458;-62
2023/03/24 03:10:45;;;;;;;;;4.00;4.00;;;;;15.23;60.16;99843.03;5015442;28;46152;-62
2023/03/24 03:13:18;;;;;;;;;3.75;3.75;;;;;15.23;59.81;99856.25;5012151;28;45284;-62
2023/03/24 03:15:49;;;;;;;;;3.00;3.00;;;;;15.21;60.24;99856.34;5017323;28;45382;-62
2023/03/24 03:18:49;;;;;;;;;5.25;3.00;;;;;15.19;60.12;99866.13;5016920;28;45261;-62
2023/03/24 03:21:17;;;;;;;;;6.25;4.25;;;;;15.19;60.11;99862.63;5045608;28;46159;-62
2023/03/24 03:24:12;;;;;;;;;3.50;2.25;;;;;15.17;60.00;99867.13;5006925;28;45227;-62
2023/03/24 03:26:38;;;;;;;;;4.00;2.25;;;;;15.13;60.04;99870.84;5018085;28;45353;-62
2023/03/24 03:29:12;;;;;;;;;1.75;0.00;;;;;15.09;59.67;99889.53;5019738;28;45468;-62
2023/03/24 03:31:49;;;;;;;;;3.50;1.00;;;;;15.08;60.01;99879.00;5019636;28;46208;-62
2023/03/24 03:34:24;;;;;;;;;1.75;1.75;;;;;15.07;59.49;99869.38;5019705;28;45254;-62
2023/03/24 03:37:00;;;;;;;;;3.25;0.75;;;;;15.00;59.64;99874.06;5019751;28;45296;-62
2023/03/24 03:39:38;;;;;;;;;0.50;0.50;;;;;15.04;58.99;99910.06;5019376;28;45243;-63
2023/03/24 03:42:05;;;;;;;;;2.25;2.25;;;;;15.02;58.88;99880.16;5008422;28;46380;-62
2023/03/24 03:44:31;;;;;;;;;0.50;0.50;;;;;14.97;59.32;99874.22;5019671;28;45322;-62
2023/03/24 03:46:57;;;;;;;;;1.25;0.75;;;;;14.95;58.89;99889.31;5019635;28;45443;-62
2023/03/24 03:49:24;;;;;;;;;1.50;1.25;;;;;14.93;58.86;99873.50;5019540;28;45320;-63
2023/03/24 03:51:51;;;;;;;;;1.75;0.00;;;;;14.92;59.11;99870.94;5019227;28;46222;-62
2023/03/24 03:54:17;;;;;;;;;1.50;1.50;;;;;14.89;59.01;99881.66;5019443;28;45317;-62
2023/03/24 03:56:43;;;;;;;;;2.25;1.50;;;;;14.88;58.73;99886.09;5019516;28;45293;-62
2023/03/24 03:59:22;;;;;;;;;2.75;2.00;;;;;14.88;58.77;99890.50;5019362;28;45600;-62
2023/03/24 04:01:48;;;;;;;;;0.50;0.50;;;;;14.86;59.24;99887.94;5019343;28;45259;-62
2023/03/24 04:04:32;;;;;;;;;0.50;0.50;;;;;14.84;58.72;99892.47;5019385;28;45211;-62
2023/03/24 04:07:15;;;;;;;;;1.75;1.00;;;;;14.82;58.50;99894.31;5019248;28;45297;-62
2023/03/24 04:10:08;;;;;;;;;1.00;0.25;;;;;14.79;58.95;99897.06;5019002;28;45176;-62
2023/03/24 04:13:11;;;;;;;;;1.25;1.25;;;;;14.77;58.44;99904.22;5019341;28;45560;-62
2023/03/24 04:15:56;;;;;;;;;0.25;0.25;;;;;14.73;58.74;99907.91;5018377;28;45322;-62
2023/03/24 04:18:43;;;;;;;;;4.00;0.50;;;;;14.72;58.85;99900.94;5019521;28;45157;-62
2023/03/24 04:21:27;;;;;;;;;2.00;0.50;;;;;14.70;58.65;99908.06;5016249;28;45387;-62
2023/03/24 04:24:34;;;;;;;;;1.50;0.50;;;;;14.67;58.27;99909.06;5010114;28;46293;-62
2023/03/24 04:27:16;;;;;;;;;2.00;1.25;;;;;14.66;58.31;99906.50;4997190;28;45558;-62
2023/03/24 04:29:59;;;;;;;;;1.75;1.50;;;;;14.61;58.38;99910.16;5016753;28;45497;-62
2023/03/24 04:32:45;;;;;;;;;0.50;0.50;;;;;14.62;58.61;99925.09;5018829;28;45310;-62
2023/03/24 04:35:25;;;;;;;;;0.50;0.50;;;;;14.59;58.54;99933.19;5019161;28;45239;-62
2023/03/24 04:37:52;;;;;;;;;1.50;1.00;;;;;14.58;58.50;99928.81;5018749;28;45484;-62
2023/03/24 04:40:21;;;;;;;;;2.75;0.50;;;;;14.56;58.51;99933.28;5012227;28;45349;-62
2023/03/24 04:42:51;;;;;;;;;0.50;0.50;;;;;14.57;58.64;99936.81;5004358;28;45390;-62
2023/03/24 04:45:18;;;;;;;;;1.00;1.00;;;;;14.52;58.06;99944.09;5018888;28;45335;-61
2023/03/24 04:47:55;;;;;;;;;1.75;1.75;;;;;14.51;58.18;99942.38;5018521;28;45241;-62
2023/03/24 04:50:55;;;;;;;;;0.50;0.00;;;;;14.47;58.16;99939.84;5018915;28;45239;-62
2023/03/24 04:53:20;;;;;;;;;4.50;1.00;;;;;14.45;58.44;99935.53;5014444;28;45365;-62
2023/03/24 04:55:48;;;;;;;;;2.75;1.00;;;;;14.43;58.47;99947.97;5018499;28;46212;-62
2023/03/24 04:58:18;;;;;;;;;2.00;2.00;;;;;14.40;58.49;99962.19;5018752;28;45217;-62
2023/03/24 05:00:43;;;;;;;;;0.75;0.75;;;;;14.34;58.54;99951.00;5019006;28;45397;-62
2023/03/24 05:03:15;;;;;;;;;5.00;1.00;;;;;14.34;58.07;99959.81;5018659;28;45435;-62
2023/03/24 05:05:42;;;;;;;;;1.75;1.75;;;;;14.33;58.15;99967.81;5018810;28;46266;-62
2023/03/24 05:08:09;;;;;;;;;3.00;3.00;;;;;14.30;58.31;99979.34;5018252;28;45231;-62
2023/03/24 05:10:34;;;;;;;;;1.75;1.75;;;;;14.23;58.12;99967.31;5018521;28;45349;-62
2023/03/24 05:13:00;;;;;;;;;2.75;1.00;;;;;14.23;58.47;99969.97;5018536;28;45407;-62
2023/03/24 05:15:26;;;;;;;;;2.50;2.00;;;;;14.19;58.24;99971.88;5018603;28;46129;-62
2023/03/24 05:17:51;;;;;;;;;2.00;0.75;;;;;14.17;58.27;99989.56;5018722;28;45907;-62
2023/03/24 05:20:17;;;;;;;;;1.00;1.00;;;;;14.15;58.55;99996.72;5010726;28;45663;-62
2023/03/24 05:22:43;;;;;;;;;4.25;2.50;;;;;14.12;57.91;99995.06;4981239;28;45327;-62
2023/03/24 05:25:09;;;;;;;;;3.00;2.00;;;;;14.12;58.47;100000.34;4993199;28;46250;-62
2023/03/24 05:27:34;;;;;;;;;3.00;3.00;;;;;14.10;58.46;99996.00;4992511;28;45444;-62
2023/03/24 05:30:00;;;;;;;;;1.75;1.75;;;;;14.10;58.11;100004.81;4991440;28;45235;-62
2023/03/24 05:32:26;;;;;;;;;1.75;1.00;;;;;14.07;58.49;100010.22;4995611;28;45416;-62
2023/03/24 05:34:51;;;;;;;;;0.75;0.75;;;;;14.07;57.90;100012.00;4990992;28;46887;-62
2023/03/24 05:37:17;;;;;;;;;3.00;3.00;;;;;14.06;57.83;100015.56;4992503;28;45437;-62
2023/03/24 05:39:42;;;;;;;;;2.00;1.75;;;;;14.00;58.20;100013.16;4993854;28;45446;-62
2023/03/24 05:42:08;;;;;;;;;1.50;1.00;;;;;13.97;58.06;100022.94;4990884;28;45169;-62
2023/03/24 05:44:33;;;;;;;;;0.00;0.00;;;;;13.96;57.92;100029.16;4992821;28;45731;-62
2023/03/24 05:46:58;;;;;;;;;3.25;2.00;;;;;13.94;57.98;100022.22;4991117;28;47135;-62
2023/03/24 05:49:24;;;;;;;;;5.00;4.00;;;;;13.95;58.00;100030.06;4990923;28;45811;-62
2023/03/24 05:51:49;;;;;;;;;5.75;2.50;;;;;13.93;58.01;100034.53;4996194;28;45417;-62
2023/03/24 05:54:15;;;;;;;;;4.75;2.75;;;;;13.92;58.23;100040.75;5058061;27;46194;-62
2023/03/24 05:56:40;;;;;;;;;2.00;2.00;;;;;13.88;57.80;100041.78;5017025;28;45339;-62
2023/03/24 05:59:05;;;;;;;;;1.25;1.00;;;;;13.84;58.18;100034.06;5016835;28;45515;-62
2023/03/24 06:01:31;;;;;;;;;2.50;1.75;;;;;13.82;57.94;100050.81;5018104;28;45252;-62
2023/03/24 06:03:56;;;;;;;;;2.50;1.25;;;;;13.79;57.86;100040.34;5016656;28;48671;-62
2023/03/24 06:06:21;;;;;;;;;3.25;2.00;;;;;13.79;57.97;100045.63;5017553;28;49126;-62
2023/03/24 06:08:47;;;;;;;;;2.50;1.25;;;;;13.74;57.73;100052.88;5018087;28;45240;-61
2023/03/24 06:11:13;;;;;;;;;2.00;1.00;;;;;13.68;57.88;100054.91;5017470;28;45394;-62
2023/03/24 06:13:38;;;;;;;;;3.00;3.00;;;;;13.62;57.68;100059.50;5017949;28;45959;-60
2023/03/24 06:16:05;;;;;;;;;2.00;2.00;;;;;13.62;57.70;100072.69;5016381;28;45301;-62
2023/03/24 06:18:30;;;;;;;;;2.25;2.25;;;;;13.61;57.68;100078.91;5018090;28;45160;-62
2023/03/24 06:20:56;;;;;;;;;3.00;3.00;;;;;13.61;57.67;100088.56;5004911;28;45274;-62
2023/03/24 06:23:26;;;;;;;;;4.00;3.00;;;;;13.57;57.63;100090.50;5004603;28;45701;-62
2023/03/24 06:25:54;;;;;;;;;4.50;3.00;;;;;13.54;57.48;100106.44;5017442;28;45435;-63
2023/03/24 06:28:21;;;;;;;;;2.50;2.50;;;;;13.53;57.71;100099.41;5017771;28;45340;-62
2023/03/24 06:30:47;;;;;;;;;2.00;2.00;;;;;13.47;58.00;100107.56;5017267;28;45479;-62
2023/03/24 06:33:13;;;;;;;;;2.75;1.25;;;;;13.45;57.67;100102.34;5017656;28;47004;-62
2023/03/24 06:35:39;;;;;;;;;1.00;1.00;;;;;13.43;57.78;100106.84;5017368;28;45386;-61
2023/03/24 06:38:05;;;;;;;;;1.00;1.00;;;;;13.41;57.71;100115.69;5017530;28;45502;-61
2023/03/24 06:40:31;;;;;;;;;2.00;2.00;;;;;13.36;57.90;100112.34;5007431;27;45290;-62
2023/03/24 06:42:57;;;;;;;;;4.00;3.00;;;;;13.33;58.11;100114.19;4996327;28;46802;-61
2023/03/24 06:45:22;;;;;;;;;1.75;1.75;;;;;13.33;58.21;100113.31;4995221;28;45423;-62
2023/03/24 06:47:48;;;;;;;;;3.00;2.00;;;;;13.32;57.63;100120.38;5005680;27;45424;-63
2023/03/24 06:50:13;;;;;;;;;5.25;4.00;;;;;13.28;57.65;100124.03;4995220;28;45607;-64
2023/03/24 06:52:40;;;;;;;;;2.50;2.50;;;;;13.27;58.04;100134.63;5002410;28;45302;-62
2023/03/24 06:55:07;;;;;;;;;2.25;2.00;;;;;13.24;57.68;100118.91;4989500;28;45371;-63
2023/03/24 06:57:32;;;;;;;;;5.50;3.00;;;;;13.23;58.10;100128.63;5003697;28;45445;-63
2023/03/24 06:59:58;;;;;;;;;4.25;2.00;;;;;13.21;57.88;100133.06;4999176;28;45296;-62
2023/03/24 07:02:23;;;;;;;;;3.00;1.75;;;;;13.19;58.03;100136.69;5013726;28;45370;-63
2023/03/24 07:04:49;;;;;;;;;2.75;2.75;;;;;13.20;58.02;100141.06;5000926;28;45565;-64
2023/03/24 07:07:16;;;;;;;;;3.00;1.75;;;;;13.18;57.86;100149.00;5003387;28;45433;-63
2023/03/24 07:09:42;;;;;;;;;7.25;3.00;;;;;13.15;58.07;100139.41;5006305;28;46259;-64
2023/03/24 07:12:08;;;;;;;;;3.00;2.00;;;;;13.16;57.91;100154.34;5001468;28;45938;-64
2023/03/24 07:14:33;;;;;;;;;4.00;2.50;;;;;13.17;57.74;100152.56;4995672;28;45524;-63
2023/03/24 07:16:59;;;;;;;;;6.50;2.25;;;;;13.18;57.87;100162.19;4997181;28;45337;-62
2023/03/24 07:19:24;;;;;;;;;4.25;2.00;;;;;13.17;58.21;100150.78;5011573;28;45424;-63
2023/03/24 07:21:49;;;;;;;;;3.50;1.75;;;;;13.20;57.75;100164.78;5000267;28;46159;-63
2023/03/24 07:24:18;;;;;;;;;3.00;1.50;;;;;13.17;57.87;100171.03;5011109;28;45165;-63
2023/03/24 07:26:44;;;;;;;;;3.50;2.00;;;;;13.19;57.96;100168.34;5012199;28;45532;-63
2023/03/24 07:29:10;;;;;;;;;3.50;1.25;;;;;13.18;58.12;100172.75;5011234;28;45514;-63
2023/03/24 07:31:37;;;;;;;;;4.25;2.00;;;;;13.18;57.97;100175.38;5016720;28;46150;-63
2023/03/24 07:34:07;;;;;;;;;1.00;1.00;;;;;13.15;58.25;100172.84;5016663;27;45326;-63
2023/03/24 07:36:32;;;;;;;;;4.00;4.00;;;;;13.15;57.97;100176.34;5015422;28;45332;-63
2023/03/24 07:38:57;;;;;;;;;3.00;2.00;;;;;13.18;57.86;100183.28;5016099;28;50808;-63
2023/03/24 07:41:23;;;;;;;;;4.50;1.75;;;;;13.20;57.98;100185.91;5000944;28;57044;-63
2023/03/24 07:43:49;;;;;;;;;3.50;2.50;;;;;13.20;57.83;100175.34;5010548;27;45542;-63
2023/03/24 07:46:15;;;;;;;;;3.00;1.00;;;;;13.23;58.18;100191.06;5014141;28;45265;-63
2023/03/24 07:48:41;;;;;;;;;3.00;2.25;;;;;13.25;58.14;100199.81;5031479;28;45430;-63
2023/03/24 07:51:06;;;;;;;;;8.00;3.25;;;;;13.25;58.20;100203.28;5022602;28;47032;-64
2023/03/24 07:53:32;;;;;;;;;4.00;3.75;;;;;13.29;57.78;100204.03;5020096;28;45474;-63
2023/03/24 07:55:58;;;;;;;;;5.25;1.75;;;;;13.30;57.96;100198.72;5016660;28;45402;-63
2023/03/24 07:58:23;;;;;;;;;5.50;1.00;;;;;13.29;57.98;100201.41;5016322;28;45307;-63
2023/03/24 08:00:52;;;;;;;;;3.00;3.00;;;;;13.31;58.04;100211.00;5015052;28;46540;-63
2023/03/24 08:03:17;;;;;;;;;4.00;2.00;;;;;13.36;57.85;100229.31;5016253;28;45226;-63
2023/03/24 08:05:43;;;;;;;;;2.75;2.50;;;;;13.37;57.54;100199.41;5014986;28;45257;-63
2023/03/24 08:08:08;;;;;;;;;4.00;2.25;;;;;13.39;57.49;100207.28;5014949;28;45538;-63
2023/03/24 08:10:34;;;;;;;;;4.00;1.00;;;;;13.40;57.81;100215.13;5016279;28;45294;-63
2023/03/24 08:13:00;;;;;;;;;4.00;3.75;;;;;13.40;57.62;100203.72;5019290;28;45693;-63
2023/03/24 08:15:26;;;;;;;;;5.00;2.25;;;;;13.40;57.49;100201.94;5019581;28;45330;-63
2023/03/24 08:17:52;;;;;;;;;4.25;2.75;;;;;13.39;57.54;100218.69;5019360;28;45445;-63
2023/03/24 08:20:20;;;;;;;;;2.75;2.00;;;;;13.41;57.44;100211.59;5011022;28;45344;-64
2023/03/24 08:22:48;;;;;;;;;4.25;2.75;;;;;13.48;57.85;100218.38;5001902;28;45263;-63
2023/03/24 08:25:18;;;;;;;;;4.50;3.25;;;;;13.49;57.14;100219.22;5019305;28;45364;-64
2023/03/24 08:27:44;;;;;;;;;2.00;1.50;;;;;13.53;57.51;100215.56;5051288;28;45424;-63
2023/03/24 08:30:14;;;;;;;;;6.75;3.00;;;;;13.60;57.63;100221.50;5019112;28;46162;-63
2023/03/24 08:32:49;;;;;;;;;1.00;1.00;;;;;13.63;56.95;100251.31;5019107;28;45575;-63
2023/03/24 08:35:17;;;;;;;;;5.00;1.75;;;;;13.68;57.28;100227.38;5019309;28;45366;-63
2023/03/24 08:37:44;;;;;;;;;3.75;2.00;;;;;13.64;57.40;100213.41;5018751;28;45381;-63
2023/03/24 08:40:13;;;;;;;;;11.25;4.00;;;;;13.75;56.89;100217.47;5018649;28;46473;-63
2023/03/24 08:42:40;;;;;;;;;4.50;2.25;;;;;13.80;57.17;100249.84;5018935;28;45253;-63
2023/03/24 08:45:08;;;;;;;;;4.50;3.00;;;;;13.82;56.90;100233.03;5034323;28;45329;-63
2023/03/24 08:47:33;;;;;;;;;2.25;2.25;;;;;13.84;56.68;100232.97;5034072;28;45607;-64
2023/03/24 08:49:59;;;;;;;;;4.00;2.75;;;;;13.86;56.64;100232.91;5018899;28;46759;-63
2023/03/24 08:52:25;;;;;;;;;6.00;3.00;;;;;13.91;57.18;100246.81;5016380;28;45242;-64
2023/03/24 08:54:51;;;;;;;;;5.75;2.00;;;;;13.92;57.00;100246.78;4999129;28;45352;-64
2023/03/24 08:57:17;;;;;;;;;2.50;2.50;;;;;13.95;56.59;100246.66;5016925;28;45547;-64
2023/03/24 08:59:42;;;;;;;;;3.00;2.25;;;;;14.02;57.01;100252.56;5018721;28;47000;-64
2023/03/24 09:02:10;;;;;;;;;3.00;2.50;;;;;14.04;56.90;100255.19;5018690;28;45251;-64
2023/03/24 09:04:36;;;;;;;;;3.00;2.50;;;;;14.12;56.21;100246.06;5019179;28;45252;-63
2023/03/24 09:07:02;;;;;;;;;3.25;1.75;;;;;14.17;56.27;100263.50;5018379;28;45310;-63
2023/03/24 09:09:28;;;;;;;;;4.25;3.00;;;;;14.21;56.06;100265.97;5018372;28;46353;-64
2023/03/24 09:11:53;;;;;;;;;3.50;3.50;;;;;14.24;56.49;100270.31;5018334;28;45481;-63
2023/03/24 09:14:21;;;;;;;;;4.25;1.50;;;;;14.28;56.09;100269.25;5018863;28;45157;-64
2023/03/24 09:16:47;;;;;;;;;3.50;1.50;;;;;14.31;56.15;100266.50;5018547;28;45417;-64
2023/03/24 09:19:13;;;;;;;;;7.75;3.00;;;;;14.40;56.43;100273.22;5017860;28;45533;-64
2023/03/24 09:21:40;;;;;;;;;4.25;2.00;;;;;14.42;55.90;100281.97;5012038;28;45532;-64
2023/03/24 09:24:06;;;;;;;;;3.50;1.25;;;;;14.47;56.13;100278.22;5008276;28;45458;-64
2023/03/24 09:26:32;;;;;;;;;3.00;1.25;;;;;14.55;56.21;100275.31;5018340;28;45350;-63
2023/03/24 09:28:58;;;;;;;;;2.25;0.50;;;;;14.54;56.14;100276.22;5018163;28;45455;-64
2023/03/24 09:31:24;;;;;;;;;2.50;1.75;;;;;14.58;56.08;100267.25;5016922;28;45294;-64
2023/03/24 09:33:50;;;;;;;;;3.00;1.50;;;;;14.62;55.88;100266.19;5017276;28;45357;-64
2023/03/24 09:36:15;;;;;;;;;2.75;1.25;;;;;14.73;55.90;100296.69;5017779;28;45449;-64
2023/03/24 09:38:41;;;;;;;;;4.50;2.00;;;;;14.75;55.63;100273.69;5018313;28;45389;-63
2023/03/24 09:41:17;;;;;;;;;3.00;2.25;;;;;14.91;55.41;100272.16;5018146;28;45335;-64
2023/03/24 09:43:45;;;;;;;;;3.00;2.00;;;;;14.95;55.12;100273.78;5018447;28;45193;-64
2023/03/24 09:46:16;;;;;;;;;4.00;2.50;;;;;15.03;55.17;100289.34;5018238;28;45345;-64
2023/03/24 09:48:54;;;;;;;;;5.25;3.50;;;;;15.09;54.99;100269.69;5017862;28;45498;-63
2023/03/24 09:51:26;;;;;;;;;1.00;1.00;;;;;15.15;54.92;100281.84;5017957;28;45448;-64
2023/03/24 09:54:06;;;;;;;;;7.25;0.75;;;;;15.22;55.10;100283.28;5019319;28;45244;-64
2023/03/24 09:56:34;;;;;;;;;4.00;1.75;;;;;15.22;54.63;100276.22;5009951;28;45383;-63
2023/03/24 09:59:04;;;;;;;;;1.25;0.00;;;;;15.32;54.48;100273.19;5017716;28;45294;-64
2023/03/24 10:01:30;;;;;;;;;1.25;1.25;;;;;15.32;54.14;100281.13;5018072;28;45443;-64
2023/03/24 10:03:57;;;;;;;;;5.25;2.50;;;;;15.35;54.13;100281.03;5017951;28;45314;-63
2023/03/24 10:06:28;;;;;;;;;5.50;2.25;;;;;15.37;54.08;100285.31;5017711;28;45539;-63
2023/03/24 10:09:16;;;;;;;;;2.50;0.75;;;;;15.38;54.09;100302.06;5017868;28;45408;-63
2023/03/24 10:12:03;;;;;;;;;2.50;2.00;;;;;15.39;54.12;100283.47;5017670;28;45310;-64
2023/03/24 10:14:53;;;;;;;;;2.50;1.25;;;;;15.41;54.33;100284.25;5018095;28;45327;-64
2023/03/24 10:17:42;;;;;;;;;0.50;0.50;;;;;15.43;53.87;100290.38;5018060;28;45642;-64
2023/03/24 10:20:39;;;;;;;;;0.75;0.00;;;;;15.46;54.33;100286.72;5016153;28;45298;-64
2023/03/24 10:23:26;;;;;;;;;1.25;1.00;;;;;15.50;54.34;100290.97;5004207;28;45243;-64
2023/03/24 10:25:54;;;;;;;;;2.00;2.00;;;;;15.51;54.17;100291.81;5017726;28;45227;-64
2023/03/24 10:28:26;;;;;;;;;2.75;1.75;;;;;15.59;53.63;100309.09;5017597;28;45340;-63
2023/03/24 10:30:58;;;;;;;;;2.00;2.00;;;;;15.61;53.80;100298.47;5017360;28;45244;-64
2023/03/24 10:33:24;;;;;;;;;4.50;0.75;;;;;15.62;53.50;100300.16;5017404;28;45305;-64
2023/03/24 10:35:57;;;;;;;;;1.25;0.75;;;;;15.70;53.52;100321.06;5017557;28;45214;-64
2023/03/24 10:38:23;;;;;;;;;3.50;1.75;;;;;15.70;53.56;100313.13;5017830;28;45272;-63
2023/03/24 10:40:48;;;;;;;;;1.00;0.00;;;;;15.73;53.38;100291.78;5017144;28;46532;-63
2023/03/24 10:43:17;;;;;;;;;2.75;1.50;;;;;15.76;53.26;100303.09;5017658;28;45222;-64
2023/03/24 10:45:47;;;;;;;;;1.00;1.00;;;;;15.80;52.83;100292.38;5017741;28;45230;-64
2023/03/24 10:48:32;;;;;;;;;3.00;1.50;;;;;15.84;52.70;100301.97;5016712;28;45677;-63
2023/03/24 10:50:58;;;;;;;;;0.00;0.00;;;;;15.85;52.63;100293.94;5017030;28;45400;-63
2023/03/24 10:53:24;;;;;;;;;3.75;1.75;;;;;15.92;52.60;100299.81;5007175;28;45270;-63
2023/03/24 10:55:49;;;;;;;;;4.00;2.75;;;;;15.93;52.47;100301.53;5001662;28;45390;-64
2023/03/24 10:58:48;;;;;;;;;1.00;0.25;;;;;15.90;52.79;100302.53;5005589;28;45379;-64
2023/03/24 11:01:22;;;;;;;;;1.00;0.00;;;;;16.01;52.71;100319.75;5007474;28;46316;-64
2023/03/24 11:03:48;;;;;;;;;3.00;1.00;;;;;16.05;52.92;100297.47;5017078;28;45452;-64
2023/03/24 11:06:18;;;;;;;;;2.00;2.00;;;;;16.18;52.56;100309.28;5015873;28;45417;-64
2023/03/24 11:08:43;;;;;;;;;4.25;1.50;;;;;16.32;52.58;100295.41;5017314;28;45434;-64
2023/03/24 11:11:19;;;;;;;;;4.00;1.25;;;;;16.41;52.77;100299.44;5016890;28;46261;-64
2023/03/24 11:13:55;;;;;;;;;1.00;0.75;;;;;16.53;52.65;100301.53;5017148;28;45238;-64
2023/03/24 11:16:29;;;;;;;;;2.00;2.00;;;;;16.67;53.20;100290.28;5017135;28;45311;-64
2023/03/24 11:19:00;;;;;;;;;2.00;1.00;;;;;16.82;52.93;100304.59;5016953;28;45166;-64
2023/03/24 11:21:28;;;;;;;;;4.00;1.00;;;;;16.90;52.75;100290.97;5012461;28;45929;-64
2023/03/24 11:23:57;;;;;;;;;1.25;1.25;;;;;17.01;52.79;100295.81;5006835;28;45286;-63
2023/03/24 11:26:36;;;;;;;;;1.00;1.00;;;;;17.09;52.20;100295.44;5016981;28;45286;-64
2023/03/24 11:29:16;;;;;;;;;2.25;1.00;;;;;17.09;51.75;100301.59;5016785;28;45310;-63
2023/03/24 11:31:41;;;;;;;;;1.75;1.25;;;;;17.07;52.10;100290.22;5016565;28;46099;-64
2023/03/24 11:34:12;;;;;;;;;2.00;1.00;;;;;17.04;52.64;100287.69;5016877;28;45242;-64
2023/03/24 11:36:41;;;;;;;;;0.50;0.25;;;;;17.17;51.84;100301.25;5015709;28;45514;-64
2023/03/24 11:39:13;;;;;;;;;1.00;0.25;;;;;17.27;51.97;100296.31;5016079;28;45205;-64
2023/03/24 11:42:02;;;;;;;;;1.25;1.25;;;;;17.42;52.14;100284.97;5031629;28;47485;-64
2023/03/24 11:44:55;;;;;;;;;2.50;1.00;;;;;17.60;51.89;100293.78;5031582;28;45848;-64
2023/03/24 11:47:31;;;;;;;;;2.50;2.00;;;;;17.71;51.67;100278.16;5016360;28;45268;-65